Time;durP1;ratioP1;P1;durP2;ratioP2;P2;SDS_P1;SDS_P2;PMS_P1;PMS_P2;Temp;Humidity;BMP_temperature;BMP_pressure;BME280_temperature;BME280_humidity;BME280_pressure;Samples;Min_cycle;Max_cycle;Signal;HPM_P1;HPM_P2
2021/01/28 00:00:31;;;;;;;9.82;5.50;;;;;;;-144.78;100.00;59851.00;5033067;28;20213;-74
2021/01/28 00:02:57;;;;;;;8.25;5.60;;;;;;;-144.78;100.00;59851.00;5033644;28;20216;-75
2021/01/28 00:05:27;;;;;;;9.38;4.45;;;;;;;-144.78;100.00;59851.00;5020094;28;20204;-73
2021/01/28 00:07:54;;;;;;;10.50;5.45;;;;;;;-144.78;100.00;59851.00;5025572;28;20293;-74
2021/01/28 00:10:21;;;;;;;8.93;5.05;;;;;;;-144.78;100.00;59851.00;5033072;28;20200;-73
2021/01/28 00:12:48;;;;;;;10.02;5.60;;;;;;;-144.78;100.00;59851.00;5033428;28;20286;-74
2021/01/28 00:15:16;;;;;;;7.60;4.82;;;;;;;-144.78;100.00;59851.00;5033226;28;20284;-73
2021/01/28 00:17:43;;;;;;;8.05;5.80;;;;;;;-144.78;100.00;59851.00;5032766;28;20262;-74
2021/01/28 00:20:13;;;;;;;9.80;4.53;;;;;;;-144.78;100.00;59851.00;5019724;28;20672;-75
2021/01/28 00:22:40;;;;;;;9.18;5.47;;;;;;;-144.78;100.00;59851.00;5013233;28;20207;-74
2021/01/28 00:25:08;;;;;;;7.60;5.50;;;;;;;-144.78;100.00;59851.00;5027003;28;20207;-74
2021/01/28 00:27:34;;;;;;;8.85;6.20;;;;;;;-144.78;100.00;59851.00;5025974;28;20304;-73
2021/01/28 00:30:01;;;;;;;8.27;4.82;;;;;;;-144.78;100.00;59851.00;5028237;28;20229;-74
2021/01/28 00:32:28;;;;;;;10.88;5.80;;;;;;;-144.78;100.00;59851.00;5033578;28;20481;-75
2021/01/28 00:34:54;;;;;;;9.60;5.35;;;;;;;-144.78;100.00;59851.00;5032473;28;20261;-75
2021/01/28 00:37:21;;;;;;;8.80;6.07;;;;;;;-144.78;100.00;59851.00;5032807;28;20197;-72
2021/01/28 00:39:47;;;;;;;9.82;6.15;;;;;;;-144.78;100.00;59851.00;5032558;28;20239;-74
2021/01/28 00:42:14;;;;;;;6.72;3.97;;;;;;;-144.78;100.00;59851.00;5022496;28;20209;-74
2021/01/28 00:44:40;;;;;;;9.40;5.00;;;;;;;-144.78;100.00;59851.00;5030043;28;20206;-74
2021/01/28 00:47:07;;;;;;;5.50;4.20;;;;;;;-144.78;100.00;59851.00;5024431;28;20201;-74
2021/01/28 00:49:34;;;;;;;6.47;4.90;;;;;;;-144.78;100.00;59851.00;5028794;28;20204;-74
2021/01/28 00:52:00;;;;;;;8.18;4.95;;;;;;;-144.78;100.00;59851.00;5032322;28;20340;-74
2021/01/28 00:54:27;;;;;;;9.05;5.18;;;;;;;-144.78;100.00;59851.00;5031997;28;20737;-74
2021/01/28 00:56:53;;;;;;;8.60;4.22;;;;;;;-144.78;100.00;59851.00;5032428;28;20217;-72
2021/01/28 00:59:19;;;;;;;5.97;3.90;;;;;;;-144.78;100.00;59851.00;5022650;28;20370;-73
2021/01/28 01:01:45;;;;;;;7.25;3.92;;;;;;;-144.78;100.00;59851.00;5031680;28;20244;-74
2021/01/28 01:04:12;;;;;;;10.10;5.15;;;;;;;-144.78;100.00;59851.00;5032014;28;20189;-74
2021/01/28 01:06:39;;;;;;;10.43;5.10;;;;;;;-144.78;100.00;59851.00;5032851;28;20204;-75
2021/01/28 01:09:06;;;;;;;12.02;4.97;;;;;;;-144.78;100.00;59851.00;5031829;28;20222;-74
2021/01/28 01:11:32;;;;;;;6.97;4.15;;;;;;;-144.78;100.00;59851.00;5032246;28;20266;-73
2021/01/28 01:13:58;;;;;;;6.97;4.00;;;;;;;-144.78;100.00;59851.00;5032043;28;20205;-72
2021/01/28 01:16:25;;;;;;;7.10;4.95;;;;;;;-144.78;100.00;59851.00;5019536;28;20207;-72
2021/01/28 01:18:52;;;;;;;7.32;3.25;;;;;;;-144.78;100.00;59851.00;5013794;28;20230;-74
2021/01/28 01:21:18;;;;;;;6.25;3.75;;;;;;;-144.78;100.00;59851.00;5032091;28;20233;-74
2021/01/28 01:23:45;;;;;;;12.10;5.60;;;;;;;-144.78;100.00;59851.00;5021891;28;20231;-74
2021/01/28 01:26:11;;;;;;;5.20;3.92;;;;;;;-144.78;100.00;59851.00;5031782;28;20693;-74
2021/01/28 01:28:38;;;;;;;7.45;5.10;;;;;;;-144.78;100.00;59851.00;5020227;28;20308;-74
2021/01/28 01:31:04;;;;;;;6.40;4.00;;;;;;;-144.78;100.00;59851.00;5030825;28;20211;-74
2021/01/28 01:33:31;;;;;;;7.20;4.63;;;;;;;-144.78;100.00;59851.00;5031821;28;20208;-74
2021/01/28 01:35:57;;;;;;;6.60;3.90;;;;;;;-144.78;100.00;59851.00;5030902;28;20223;-74
2021/01/28 01:38:23;;;;;;;5.18;3.17;;;;;;;-144.78;100.00;59851.00;5029431;28;20207;-74
2021/01/28 01:40:57;;;;;;;6.63;3.30;;;;;;;-144.78;100.00;59851.00;5031041;28;20275;-74
2021/01/28 01:43:24;;;;;;;6.00;3.95;;;;;;;-144.78;100.00;59851.00;5031397;28;20190;-73
2021/01/28 01:45:54;;;;;;;5.50;2.78;;;;;;;-144.78;100.00;59851.00;5031768;28;20215;-74
2021/01/28 01:48:24;;;;;;;4.97;3.40;;;;;;;-144.78;100.00;59851.00;5031707;28;20212;-74
2021/01/28 01:50:56;;;;;;;6.15;3.72;;;;;;;-144.78;100.00;59851.00;5024930;28;20291;-73
2021/01/28 01:53:26;;;;;;;4.15;3.63;;;;;;;-144.78;100.00;59851.00;5031684;28;20196;-74
2021/01/28 01:55:58;;;;;;;6.03;3.90;;;;;;;-144.78;100.00;59851.00;5031472;28;20208;-75
2021/01/28 01:58:39;;;;;;;8.60;3.70;;;;;;;-144.78;100.00;59851.00;5030992;28;20289;-72
2021/01/28 02:01:05;;;;;;;4.53;3.63;;;;;;;-144.78;100.00;59851.00;5013450;28;20220;-74
2021/01/28 02:03:34;;;;;;;6.97;3.90;;;;;;;-144.78;100.00;59851.00;5012549;28;20237;-74
2021/01/28 02:06:07;;;;;;;5.20;3.25;;;;;;;-144.78;100.00;59851.00;5029687;28;20665;-72
2021/01/28 02:08:34;;;;;;;8.30;4.38;;;;;;;-144.78;100.00;59851.00;5031055;28;20201;-73
2021/01/28 02:11:04;;;;;;;3.03;2.53;;;;;;;-144.78;100.00;59851.00;5013568;28;20209;-75
2021/01/28 02:13:31;;;;;;;3.95;2.95;;;;;;;-144.78;100.00;59851.00;5012369;28;20224;-74
2021/01/28 02:15:57;;;;;;;3.17;2.67;;;;;;;-144.78;100.00;59851.00;5029039;28;20208;-73
2021/01/28 02:18:24;;;;;;;3.28;2.50;;;;;;;-144.78;100.00;59851.00;5029971;28;20651;-73
2021/01/28 02:21:17;;;;;;;6.90;3.20;;;;;;;-144.78;100.00;59851.00;5031253;28;20288;-72
2021/01/28 02:23:59;;;;;;;3.20;2.30;;;;;;;-144.78;100.00;59851.00;5030815;28;20200;-74
2021/01/28 02:26:28;;;;;;;3.63;2.55;;;;;;;-144.78;100.00;59851.00;5012356;28;20198;-72
2021/01/28 02:28:54;;;;;;;3.40;2.83;;;;;;;-144.78;100.00;59851.00;5012634;28;20332;-74
2021/01/28 02:31:21;;;;;;;2.25;2.10;;;;;;;-144.78;100.00;59851.00;5013668;28;20237;-74
2021/01/28 02:33:51;;;;;;;4.57;2.40;;;;;;;-144.78;100.00;59851.00;5011961;28;20268;-74
2021/01/28 02:36:17;;;;;;;2.70;1.95;;;;;;;-144.78;100.00;59851.00;5031813;28;20277;-74
2021/01/28 02:38:44;;;;;;;6.63;4.30;;;;;;;-144.78;100.00;59851.00;5031602;28;20728;-73
2021/01/28 02:41:12;;;;;;;4.25;2.80;;;;;;;-144.78;100.00;59851.00;5030530;28;20236;-74
2021/01/28 02:43:39;;;;;;;4.22;2.67;;;;;;;-144.78;100.00;59851.00;5031098;28;20201;-74
2021/01/28 02:46:10;;;;;;;5.05;3.22;;;;;;;-144.78;100.00;59851.00;5032207;28;20255;-75
2021/01/28 02:48:37;;;;;;;2.40;2.20;;;;;;;-144.78;100.00;59851.00;5035401;28;20208;-72
2021/01/28 02:51:05;;;;;;;3.92;2.22;;;;;;;-144.78;100.00;59851.00;5016652;28;20641;-74
2021/01/28 02:53:36;;;;;;;3.90;2.75;;;;;;;-144.78;100.00;59851.00;5023767;28;20201;-74
2021/01/28 02:56:04;;;;;;;3.05;2.40;;;;;;;-144.78;100.00;59851.00;5035307;28;20210;-73
2021/01/28 02:58:30;;;;;;;2.45;2.08;;;;;;;-144.78;100.00;59851.00;5035037;28;20208;-72
2021/01/28 03:00:57;;;;;;;3.28;2.50;;;;;;;-144.78;100.00;59851.00;5034629;28;20637;-74
2021/01/28 03:03:24;;;;;;;2.70;2.30;;;;;;;-144.78;100.00;59851.00;5034844;28;20646;-74
2021/01/28 03:05:50;;;;;;;3.25;1.90;;;;;;;-144.78;100.00;59851.00;5032445;28;20228;-74
2021/01/28 03:08:16;;;;;;;3.53;2.65;;;;;;;-144.78;100.00;59851.00;5034807;28;20193;-74
2021/01/28 03:10:42;;;;;;;3.70;2.40;;;;;;;-144.78;100.00;59851.00;5033980;28;20197;-74
2021/01/28 03:13:10;;;;;;;3.25;2.30;;;;;;;-144.78;100.00;59851.00;5034232;28;20292;-75
2021/01/28 03:15:36;;;;;;;2.20;1.95;;;;;;;-144.78;100.00;59851.00;5033582;28;20204;-73
2021/01/28 03:18:03;;;;;;;2.30;2.10;;;;;;;-144.78;100.00;59851.00;5034889;28;20309;-72
2021/01/28 03:20:30;;;;;;;2.92;2.42;;;;;;;-144.78;100.00;59851.00;5025834;28;20687;-74
2021/01/28 03:22:57;;;;;;;3.17;2.40;;;;;;;-144.78;100.00;59851.00;5030207;28;20669;-73
2021/01/28 03:25:24;;;;;;;3.85;2.90;;;;;;;-144.78;100.00;59851.00;5027741;28;20198;-74
2021/01/28 03:27:51;;;;;;;3.00;2.70;;;;;;;-144.78;100.00;59851.00;5034502;28;20207;-73
2021/01/28 03:30:21;;;;;;;2.65;1.90;;;;;;;-144.78;100.00;59851.00;5034338;28;20313;-74
2021/01/28 03:32:48;;;;;;;2.97;2.03;;;;;;;-144.78;100.00;59851.00;5034473;28;20272;-74
2021/01/28 03:35:16;;;;;;;3.05;2.40;;;;;;;-144.78;100.00;59851.00;5020673;28;20229;-73
2021/01/28 03:37:43;;;;;;;2.45;1.80;;;;;;;-144.78;100.00;59851.00;5014394;28;20576;-74
2021/01/28 03:40:10;;;;;;;4.28;2.60;;;;;;;-144.78;100.00;59851.00;5014493;28;20688;-73
2021/01/28 03:42:37;;;;;;;3.75;2.50;;;;;;;-144.78;100.00;59851.00;5023482;28;20187;-73
2021/01/28 03:45:05;;;;;;;2.28;1.52;;;;;;;-144.78;100.00;59851.00;5033309;28;20240;-74
2021/01/28 03:47:31;;;;;;;4.40;1.95;;;;;;;-144.78;100.00;59851.00;5034065;28;20735;-73
2021/01/28 03:49:57;;;;;;;2.60;2.40;;;;;;;-144.78;100.00;59851.00;5033348;28;20240;-73
2021/01/28 03:52:25;;;;;;;3.20;1.75;;;;;;;-144.78;100.00;59851.00;5033492;28;20298;-75
2021/01/28 03:54:51;;;;;;;2.60;1.80;;;;;;;-144.78;100.00;59851.00;5034038;28;20191;-74
2021/01/28 03:57:17;;;;;;;3.05;2.72;;;;;;;-144.78;100.00;59851.00;5032829;28;20292;-73
2021/01/28 03:59:44;;;;;;;2.88;2.55;;;;;;;-144.78;100.00;59851.00;5033327;28;20691;-73
2021/01/28 04:02:10;;;;;;;2.63;2.42;;;;;;;-144.78;100.00;59851.00;5034201;28;20201;-74
2021/01/28 04:04:36;;;;;;;2.90;2.53;;;;;;;-144.78;100.00;59851.00;5033651;28;20232;-74
2021/01/28 04:07:02;;;;;;;2.15;1.95;;;;;;;-144.78;100.00;59851.00;5033592;28;20220;-75
2021/01/28 04:09:30;;;;;;;2.10;2.00;;;;;;;-144.78;100.00;59851.00;5032141;28;20193;-73
2021/01/28 04:11:56;;;;;;;2.05;1.85;;;;;;;-144.78;100.00;59851.00;5014330;28;20206;-73
2021/01/28 04:14:22;;;;;;;2.10;1.90;;;;;;;-144.78;100.00;59851.00;5018522;28;20233;-74
2021/01/28 04:16:48;;;;;;;2.97;2.40;;;;;;;-144.78;100.00;59851.00;5033619;28;20280;-73
2021/01/28 04:19:15;;;;;;;4.40;2.45;;;;;;;-144.78;100.00;59851.00;5032353;28;20226;-73
2021/01/28 04:21:41;;;;;;;4.68;2.50;;;;;;;-144.78;100.00;59851.00;5015640;28;20217;-74
2021/01/28 04:24:08;;;;;;;3.40;2.70;;;;;;;-144.78;100.00;59851.00;5013534;28;20230;-74
2021/01/28 04:26:35;;;;;;;3.20;2.17;;;;;;;-144.78;100.00;59851.00;5013444;28;20210;-74
2021/01/28 04:29:02;;;;;;;3.08;2.13;;;;;;;-144.78;100.00;59851.00;5014607;28;20272;-74
2021/01/28 04:31:31;;;;;;;2.38;2.10;;;;;;;-144.78;100.00;59851.00;5033224;28;20213;-74
2021/01/28 04:33:57;;;;;;;2.88;2.25;;;;;;;-144.78;100.00;59851.00;5032099;28;20201;-73
2021/01/28 04:36:25;;;;;;;4.28;3.30;;;;;;;-144.78;100.00;59851.00;5032903;28;20226;-75
2021/01/28 04:38:52;;;;;;;2.90;2.58;;;;;;;-144.78;100.00;59851.00;5022459;28;20348;-73
2021/01/28 04:41:20;;;;;;;2.70;2.35;;;;;;;-144.78;100.00;59851.00;5033096;28;20683;-73
2021/01/28 04:43:49;;;;;;;2.15;2.05;;;;;;;-144.78;100.00;59851.00;5032674;28;20209;-74
2021/01/28 04:46:26;;;;;;;1.92;1.73;;;;;;;-144.78;100.00;59851.00;5032739;28;20221;-74
2021/01/28 04:48:53;;;;;;;2.00;1.75;;;;;;;-144.78;100.00;59851.00;5032240;28;20186;-74
2021/01/28 04:51:20;;;;;;;2.05;1.52;;;;;;;-144.78;100.00;59851.00;5024517;28;20217;-73
2021/01/28 04:53:52;;;;;;;2.60;2.00;;;;;;;-144.78;100.00;59851.00;5032787;28;20609;-74
2021/01/28 04:56:22;;;;;;;2.80;2.30;;;;;;;-144.78;100.00;59851.00;5032477;28;20252;-74
2021/01/28 04:58:50;;;;;;;2.28;1.98;;;;;;;-144.78;100.00;59851.00;5030336;28;20229;-74
2021/01/28 05:01:16;;;;;;;2.85;2.08;;;;;;;-144.78;100.00;59851.00;5013123;28;21037;-72
2021/01/28 05:03:47;;;;;;;3.33;2.10;;;;;;;-144.78;100.00;59851.00;5012771;28;20183;-72
2021/01/28 05:06:14;;;;;;;2.20;2.00;;;;;;;-144.78;100.00;59851.00;5018289;28;20562;-74
2021/01/28 05:08:41;;;;;;;2.13;1.92;;;;;;;-144.78;100.00;59851.00;5012437;28;20277;-73
2021/01/28 05:11:21;;;;;;;2.00;1.90;;;;;;;-144.78;100.00;59851.00;5031686;28;20280;-74
2021/01/28 05:13:49;;;;;;;2.53;1.73;;;;;;;-144.78;100.00;59851.00;5028830;28;20225;-75
2021/01/28 05:16:24;;;;;;;1.77;1.67;;;;;;;-144.78;100.00;59851.00;5012287;28;20249;-73
2021/01/28 05:19:00;;;;;;;1.80;1.70;;;;;;;-144.78;100.00;59851.00;5028706;28;20208;-74
2021/01/28 05:21:29;;;;;;;1.95;1.75;;;;;;;-144.78;100.00;59851.00;5031494;28;20212;-74
2021/01/28 05:24:04;;;;;;;3.65;2.05;;;;;;;-144.78;100.00;59851.00;5016110;28;20278;-74
2021/01/28 05:26:37;;;;;;;2.17;1.45;;;;;;;-144.78;100.00;59851.00;5012073;28;20214;-74
2021/01/28 05:29:21;;;;;;;2.10;1.75;;;;;;;-144.78;100.00;59851.00;5012167;28;20219;-74
2021/01/28 05:31:49;;;;;;;2.08;1.30;;;;;;;-144.78;100.00;59851.00;5011863;28;20587;-74
2021/01/28 05:34:23;;;;;;;2.03;1.83;;;;;;;-144.78;100.00;59851.00;5012167;28;20552;-75
2021/01/28 05:36:58;;;;;;;2.60;1.52;;;;;;;-144.78;100.00;59851.00;5011972;28;20206;-73
2021/01/28 05:39:29;;;;;;;2.85;2.15;;;;;;;-144.78;100.00;59851.00;5011851;28;20210;-73
2021/01/28 05:42:06;;;;;;;1.98;1.83;;;;;;;-144.78;100.00;59851.00;5012094;28;20573;-74
2021/01/28 05:44:38;;;;;;;1.52;1.42;;;;;;;-144.78;100.00;59851.00;5011153;28;20210;-74
2021/01/28 05:47:07;;;;;;;2.05;1.80;;;;;;;-144.78;100.00;59851.00;5012171;28;20199;-73
2021/01/28 05:49:35;;;;;;;2.60;2.40;;;;;;;-144.78;100.00;59851.00;5012175;28;20199;-74
2021/01/28 05:52:14;;;;;;;2.50;2.28;;;;;;;-144.78;100.00;59851.00;5012328;28;20305;-73
2021/01/28 05:54:41;;;;;;;3.83;2.00;;;;;;;-144.78;100.00;59851.00;5010629;28;20206;-74
2021/01/28 05:57:11;;;;;;;1.73;1.60;;;;;;;-144.78;100.00;59851.00;5012502;28;20207;-73
2021/01/28 05:59:50;;;;;;;3.17;2.15;;;;;;;-144.78;100.00;59851.00;5011790;28;20248;-73
2021/01/28 06:02:38;;;;;;;1.88;1.67;;;;;;;-144.78;100.00;59851.00;5011574;28;20293;-73
2021/01/28 06:05:21;;;;;;;3.05;1.60;;;;;;;-144.78;100.00;59851.00;5007808;28;20194;-74
2021/01/28 06:08:01;;;;;;;2.28;1.80;;;;;;;-144.78;100.00;59851.00;5011753;28;20209;-74
2021/01/28 06:10:48;;;;;;;3.30;2.50;;;;;;;-144.78;100.00;59851.00;5011617;28;20202;-73
2021/01/28 06:13:34;;;;;;;2.03;1.70;;;;;;;-144.78;100.00;59851.00;5011717;28;20207;-73
2021/01/28 06:16:08;;;;;;;2.10;2.00;;;;;;;-144.78;100.00;59851.00;5011771;28;20836;-74
2021/01/28 06:19:20;;;;;;;3.83;1.65;;;;;;;-144.78;100.00;59851.00;5011246;28;20748;-73
2021/01/28 06:22:13;;;;;;;1.63;1.52;;;;;;;-144.78;100.00;59851.00;4977593;28;20206;-71
2021/01/28 06:25:01;;;;;;;1.80;1.70;;;;;;;-144.78;100.00;59851.00;5016039;28;20614;-71
2021/01/28 06:27:54;;;;;;;2.28;1.60;;;;;;;-144.78;100.00;59851.00;5014586;28;20577;-72
2021/01/28 06:30:32;;;;;;;1.50;1.40;;;;;;;-144.78;100.00;59851.00;4992403;28;20280;-74
2021/01/28 06:33:28;;;;;;;2.60;1.90;;;;;;;-144.78;100.00;59851.00;5015069;28;20197;-77
2021/01/28 06:36:07;;;;;;;3.00;2.10;;;;;;;-144.78;100.00;59851.00;5006531;28;20479;-74
2021/01/28 06:38:46;;;;;;;2.20;1.33;;;;;;;-144.78;100.00;59851.00;5015853;28;20215;-74
2021/01/28 06:41:16;;;;;;;1.73;1.60;;;;;;;-144.78;100.00;59851.00;5003841;28;20226;-75
2021/01/28 06:43:50;;;;;;;2.10;1.63;;;;;;;-144.78;100.00;59851.00;4995563;28;20191;-75
2021/01/28 06:46:34;;;;;;;2.28;1.67;;;;;;;-144.78;100.00;59851.00;4996603;28;20196;-72
2021/01/28 06:49:12;;;;;;;2.42;2.22;;;;;;;-144.78;100.00;59851.00;5012923;28;20214;-75
2021/01/28 06:52:00;;;;;;;1.75;1.40;;;;;;;-144.78;100.00;59851.00;5015073;28;20563;-74
2021/01/28 06:54:32;;;;;;;1.08;0.98;;;;;;;-144.78;100.00;59851.00;5015144;28;20198;-74
2021/01/28 06:57:07;;;;;;;4.28;2.03;;;;;;;-144.78;100.00;59851.00;5015028;28;20237;-73
2021/01/28 06:59:52;;;;;;;1.65;0.90;;;;;;;-144.78;100.00;59851.00;5014806;28;20210;-73
2021/01/28 07:02:54;;;;;;;1.38;1.27;;;;;;;-144.78;100.00;59851.00;5014414;28;20589;-74
2021/01/28 07:05:34;;;;;;;1.50;1.40;;;;;;;-144.78;100.00;59851.00;4953924;29;20231;-75
2021/01/28 07:08:10;;;;;;;1.42;1.33;;;;;;;-144.78;100.00;59851.00;5008319;28;20240;-74
2021/01/28 07:10:40;;;;;;;1.10;1.00;;;;;;;-144.78;100.00;59851.00;5014482;28;20186;-75
2021/01/28 07:13:09;;;;;;;1.35;1.10;;;;;;;-144.78;100.00;59851.00;5014207;28;20194;-74
2021/01/28 07:15:38;;;;;;;1.75;1.50;;;;;;;-144.78;100.00;59851.00;5010903;28;20197;-74
2021/01/28 07:18:10;;;;;;;1.60;1.38;;;;;;;-144.78;100.00;59851.00;5013890;28;20191;-70
2021/01/28 07:20:39;;;;;;;1.30;1.02;;;;;;;-144.78;100.00;59851.00;5014841;28;20334;-71
2021/01/28 07:23:27;;;;;;;1.75;1.05;;;;;;;-144.78;100.00;59851.00;5014008;28;20282;-72
2021/01/28 07:26:06;;;;;;;1.73;1.40;;;;;;;-144.78;100.00;59851.00;5014280;28;20197;-73
2021/01/28 07:28:32;;;;;;;3.22;1.17;;;;;;;-144.78;100.00;59851.00;5018537;28;20245;-71
2021/01/28 07:31:41;;;;;;;3.47;1.85;;;;;;;-144.78;100.00;59851.00;5031855;28;20285;-72
2021/01/28 07:34:14;;;;;;;1.60;1.50;;;;;;;-144.78;100.00;59851.00;5028239;28;20237;-72
2021/01/28 07:36:44;;;;;;;1.20;1.10;;;;;;;-144.78;100.00;59851.00;5034076;28;20217;-73
2021/01/28 07:39:34;;;;;;;1.50;1.33;;;;;;;-144.78;100.00;59851.00;5029617;28;20675;-72
2021/01/28 07:42:02;;;;;;;0.95;0.82;;;;;;;-144.78;100.00;59851.00;5013739;28;20485;-72
2021/01/28 07:44:44;;;;;;;1.45;1.15;;;;;;;-144.78;100.00;59851.00;5013490;28;20206;-73
2021/01/28 07:47:36;;;;;;;1.52;1.30;;;;;;;-144.78;100.00;59851.00;5011566;28;20274;-73
2021/01/28 07:50:22;;;;;;;2.20;1.65;;;;;;;-144.78;100.00;59851.00;5013887;28;20301;-73
2021/01/28 07:52:48;;;;;;;1.00;0.90;;;;;;;-144.78;100.00;59851.00;5030487;28;20271;-72
2021/01/28 07:55:37;;;;;;;4.20;2.25;;;;;;;-144.78;100.00;59851.00;5033646;28;20241;-73
2021/01/28 07:58:04;;;;;;;1.30;1.20;;;;;;;-144.78;100.00;59851.00;5033401;28;20597;-73
2021/01/28 08:00:39;;;;;;;1.45;1.35;;;;;;;-144.78;100.00;59851.00;5029100;28;20221;-72
2021/01/28 08:03:19;;;;;;;2.58;2.38;;;;;;;-144.78;100.00;59851.00;5033171;28;20205;-72
2021/01/28 08:05:51;;;;;;;3.45;1.17;;;;;;;-144.78;100.00;59851.00;5029062;28;20200;-74
2021/01/28 08:08:20;;;;;;;1.50;1.30;;;;;;;-144.78;100.00;59851.00;5033259;28;20192;-72
2021/01/28 08:10:46;;;;;;;1.50;1.30;;;;;;;-144.78;100.00;59851.00;5033105;28;20551;-73
2021/01/28 08:13:21;;;;;;;2.05;1.85;;;;;;;-144.78;100.00;59851.00;5034014;28;20615;-74
2021/01/28 08:15:52;;;;;;;3.30;1.83;;;;;;;-144.78;100.00;59851.00;5033793;28;20194;-72
2021/01/28 08:18:21;;;;;;;2.60;1.77;;;;;;;-144.78;100.00;59851.00;5033230;28;20222;-74
2021/01/28 08:20:49;;;;;;;1.23;1.13;;;;;;;-144.78;100.00;59851.00;5032904;28;20232;-73
2021/01/28 08:23:18;;;;;;;1.38;1.10;;;;;;;-144.78;100.00;59851.00;5027326;28;20317;-73
2021/01/28 08:25:53;;;;;;;3.97;2.90;;;;;;;-144.78;100.00;59851.00;5033201;28;20569;-72
2021/01/28 08:28:19;;;;;;;1.60;1.30;;;;;;;-144.78;100.00;59851.00;5028226;28;20232;-73
2021/01/28 08:30:48;;;;;;;2.25;1.65;;;;;;;-144.78;100.00;59851.00;5013327;28;20608;-72
2021/01/28 08:33:23;;;;;;;2.78;1.63;;;;;;;-144.78;100.00;59851.00;5013139;28;20239;-72
2021/01/28 08:35:52;;;;;;;1.45;1.35;;;;;;;-144.78;100.00;59851.00;5012953;28;20313;-73
2021/01/28 08:38:21;;;;;;;2.30;2.10;;;;;;;-144.78;100.00;59851.00;5013109;28;20712;-73
2021/01/28 08:40:58;;;;;;;2.03;1.85;;;;;;;-144.78;100.00;59851.00;5012822;28;20232;-72
2021/01/28 08:43:24;;;;;;;2.20;1.60;;;;;;;-144.78;100.00;59851.00;5010218;28;20211;-72
2021/01/28 08:46:02;;;;;;;2.00;1.73;;;;;;;-144.78;100.00;59851.00;5012608;28;20214;-72
2021/01/28 08:48:29;;;;;;;1.92;1.45;;;;;;;-144.78;100.00;59851.00;5012903;28;20282;-75
2021/01/28 08:51:09;;;;;;;2.20;2.00;;;;;;;-144.78;100.00;59851.00;5013123;28;20207;-71
2021/01/28 08:53:36;;;;;;;3.10;1.73;;;;;;;-144.78;100.00;59851.00;5012933;28;20202;-73
2021/01/28 08:56:07;;;;;;;3.50;2.35;;;;;;;-144.78;100.00;59851.00;5011992;28;20199;-73
2021/01/28 08:58:37;;;;;;;1.40;1.25;;;;;;;-144.78;100.00;59851.00;5002121;28;20637;-73
2021/01/28 09:01:05;;;;;;;3.15;2.03;;;;;;;-144.78;100.00;59851.00;5012481;28;20210;-72
2021/01/28 09:03:48;;;;;;;2.20;2.00;;;;;;;-144.78;100.00;59851.00;5013066;28;20261;-74
2021/01/28 09:06:16;;;;;;;2.53;1.73;;;;;;;-144.78;100.00;59851.00;5012056;28;20627;-73
2021/01/28 09:08:43;;;;;;;1.90;1.52;;;;;;;-144.78;100.00;59851.00;5011892;28;20546;-73
2021/01/28 09:11:17;;;;;;;2.00;1.70;;;;;;;-144.78;100.00;59851.00;5012418;28;20197;-73
2021/01/28 09:14:28;;;;;;;2.10;1.27;;;;;;;-144.78;100.00;59851.00;5011847;28;20195;-73
2021/01/28 09:16:56;;;;;;;1.67;1.58;;;;;;;-144.78;100.00;59851.00;4978436;28;20248;-73
2021/01/28 09:19:24;;;;;;;2.53;1.60;;;;;;;-144.78;100.00;59851.00;5012425;28;20267;-74
2021/01/28 09:21:59;;;;;;;4.10;2.33;;;;;;;-144.78;100.00;59851.00;5012356;28;20206;-74
2021/01/28 09:24:34;;;;;;;3.15;2.72;;;;;;;-144.78;100.00;59851.00;5012734;28;20213;-72
2021/01/28 09:27:16;;;;;;;2.88;1.65;;;;;;;-144.78;100.00;59851.00;5013357;28;20214;-72
2021/01/28 09:29:43;;;;;;;1.90;1.70;;;;;;;-144.78;100.00;59851.00;5017107;28;20225;-72
2021/01/28 09:32:13;;;;;;;3.47;2.75;;;;;;;-144.78;100.00;59851.00;5024336;28;20237;-73
2021/01/28 09:34:39;;;;;;;4.10;2.50;;;;;;;-144.78;100.00;59851.00;5033314;28;20225;-72
2021/01/28 09:37:13;;;;;;;2.25;1.98;;;;;;;-144.78;100.00;59851.00;5033101;28;20256;-71
2021/01/28 09:39:42;;;;;;;2.72;2.17;;;;;;;-144.78;100.00;59851.00;5033962;28;20214;-73
2021/01/28 09:42:30;;;;;;;2.35;1.92;;;;;;;-144.78;100.00;59851.00;5033670;28;20186;-72
2021/01/28 09:45:08;;;;;;;4.80;2.58;;;;;;;-144.78;100.00;59851.00;5028616;28;20612;-73
2021/01/28 09:47:36;;;;;;;2.63;2.03;;;;;;;-144.78;100.00;59851.00;5030427;28;20208;-72
2021/01/28 09:50:06;;;;;;;2.40;1.88;;;;;;;-144.78;100.00;59851.00;5030368;28;20190;-72
2021/01/28 09:52:35;;;;;;;4.50;2.75;;;;;;;-144.78;100.00;59851.00;5032349;28;20567;-73
2021/01/28 09:55:04;;;;;;;2.58;1.95;;;;;;;-144.78;100.00;59851.00;5032569;28;20202;-73
2021/01/28 09:57:31;;;;;;;3.90;2.20;;;;;;;-144.78;100.00;59851.00;5026531;28;20996;-72
2021/01/28 09:59:58;;;;;;;2.10;1.88;;;;;;;-144.78;100.00;59851.00;5016929;28;20496;-73
2021/01/28 10:02:35;;;;;;;3.40;1.50;;;;;;;-144.78;100.00;59851.00;5020978;28;20199;-74
2021/01/28 10:05:01;;;;;;;3.17;2.33;;;;;;;-144.78;100.00;59851.00;5016658;28;20230;-73
2021/01/28 10:07:28;;;;;;;1.95;1.52;;;;;;;-144.78;100.00;59851.00;5017669;28;20213;-72
2021/01/28 10:09:55;;;;;;;2.45;1.63;;;;;;;-144.78;100.00;59851.00;5016281;28;20642;-72
2021/01/28 10:12:24;;;;;;;5.55;1.80;;;;;;;-144.78;100.00;59851.00;5016366;28;20630;-72
2021/01/28 10:14:51;;;;;;;1.20;1.05;;;;;;;-144.78;100.00;59851.00;5019648;28;20217;-73
2021/01/28 10:17:17;;;;;;;2.25;1.55;;;;;;;-144.78;100.00;59851.00;5035036;28;20217;-72
2021/01/28 10:19:44;;;;;;;2.15;1.40;;;;;;;-144.78;100.00;59851.00;5035549;28;20349;-71
2021/01/28 10:22:11;;;;;;;1.55;0.70;;;;;;;-144.78;100.00;59851.00;5035649;28;20212;-72
2021/01/28 10:24:38;;;;;;;2.92;1.10;;;;;;;-144.78;100.00;59851.00;5035923;28;20260;-72
2021/01/28 10:27:05;;;;;;;1.65;1.00;;;;;;;-144.78;100.00;59851.00;5036129;28;20253;-72
2021/01/28 10:29:32;;;;;;;1.58;0.90;;;;;;;-144.78;100.00;59851.00;5035254;28;20233;-72
2021/01/28 10:31:58;;;;;;;1.20;1.10;;;;;;;-144.78;100.00;59851.00;5035551;28;20282;-73
2021/01/28 10:34:24;;;;;;;1.48;1.38;;;;;;;-144.78;100.00;59851.00;5034818;28;20205;-73
2021/01/28 10:36:51;;;;;;;1.52;1.02;;;;;;;-144.78;100.00;59851.00;5035673;28;20701;-72
2021/01/28 10:39:17;;;;;;;2.00;1.10;;;;;;;-144.78;100.00;59851.00;5034941;28;20212;-73
2021/01/28 10:41:44;;;;;;;2.95;1.65;;;;;;;-144.78;100.00;59851.00;5021348;28;20653;-73
2021/01/28 10:44:11;;;;;;;1.60;0.90;;;;;;;-144.78;100.00;59851.00;5020371;28;20643;-72
2021/01/28 10:46:37;;;;;;;1.27;0.88;;;;;;;-144.78;100.00;59851.00;5034667;28;20190;-71
2021/01/28 10:49:03;;;;;;;1.98;1.63;;;;;;;-144.78;100.00;59851.00;5034917;28;20246;-73
2021/01/28 10:51:32;;;;;;;1.75;1.40;;;;;;;-144.78;100.00;59851.00;5035105;28;20186;-72
2021/01/28 10:53:58;;;;;;;2.65;1.77;;;;;;;-144.78;100.00;59851.00;5033729;28;20195;-72
2021/01/28 10:56:24;;;;;;;1.20;1.00;;;;;;;-144.78;100.00;59851.00;5019319;28;20243;-73
2021/01/28 10:58:52;;;;;;;1.08;0.93;;;;;;;-144.78;100.00;59851.00;5035024;28;20194;-73
2021/01/28 11:01:19;;;;;;;1.67;1.45;;;;;;;-144.78;100.00;59851.00;5027821;28;20272;-72
2021/01/28 11:03:45;;;;;;;2.38;1.13;;;;;;;-144.78;100.00;59851.00;5017323;28;20220;-73
2021/01/28 11:06:12;;;;;;;1.23;1.13;;;;;;;-144.78;100.00;59851.00;5015300;28;20605;-73
2021/01/28 11:08:38;;;;;;;1.30;1.00;;;;;;;-144.78;100.00;59851.00;5026390;28;20209;-72
2021/01/28 11:11:05;;;;;;;1.67;1.42;;;;;;;-144.78;100.00;59851.00;5034630;28;20255;-73
2021/01/28 11:13:31;;;;;;;1.67;1.02;;;;;;;-144.78;100.00;59851.00;5034513;28;20625;-72
2021/01/28 11:15:57;;;;;;;1.15;1.05;;;;;;;-144.78;100.00;59851.00;5025609;28;20228;-72
2021/01/28 11:18:24;;;;;;;1.23;1.13;;;;;;;-144.78;100.00;59851.00;5015090;28;20209;-73
2021/01/28 11:20:51;;;;;;;1.52;1.42;;;;;;;-144.78;100.00;59851.00;5014192;28;20230;-71
2021/01/28 11:23:17;;;;;;;1.67;1.35;;;;;;;-144.78;100.00;59851.00;5014581;28;20203;-73
2021/01/28 11:25:44;;;;;;;1.35;1.10;;;;;;;-144.78;100.00;59851.00;5017579;28;20221;-72